Littleton, CO

07:46 PM MDT del 25 Ottobre 2014 (GMT -0600)
Denver | Change Station
CLOSE
Current Station
Aeroporto
Location: Denver,
Altitudine: 5430 ft
Stazioni meteo nelle vicinanze

Alt. 5430 ft 39.85 °N, 104.66 °W | Updated 53 minutes ago

Sereno
Sereno
62 °F
Sembra 62 °F
N
8
Vento Variabile Vento da ENE

Oggi
Massima -- | Minima -- °F
--% Possibilità di precip.
Ieri
Massima -- | Minima -- °F
Precip. -- in
7:20 AM 6:06 PM
Luna crescente, 5% visible
Pressione 29.90 in
Visibilità 10.0 miglia
Nuvole Sereno
Punto di rugiada 24 °F
Umidità 23%
Piovosità 0.00 in
Spessore del manto nevoso Non disponibile.
Raggi UV 0 fuori da 12
Polline 2.90 fuori da 12
PM2.5 Buono
Flu Activity Sporadic
METAR KDEN 260053Z 07007KT 10SM CLR 17/M04 A3004 RMK AO2 SLP125 T01671044

More Conditions Fewer Conditions

Pressione 29.90 in
Visibilità 10.0 miglia
Nuvole Sereno
Punto di rugiada 24 °F
Umidità 23%
Piovosità 0.00 in
Spessore del manto nevoso Non disponibile.
Raggi UV 0 fuori da 12
Polline 2.90 fuori da 12
PM2.5 Buono
Flu Activity Sporadic
METAR KDEN 260053Z 07007KT 10SM CLR 17/M04 A3004 RMK AO2 SLP125 T01671044

More Conditions Fewer Conditions

10-Day Weather Forecast

Almanac

Astronomia

Oct. 25, 2014 Alba Tramonto
Ora attuale 07:20 MDT 18:06 MDT
Crepuscolo civile 06:53 MDT 18:34 MDT
Crepuscolo nautico 06:21 MDT 19:05 MDT
Crepuscolo astronomico 05:50 MDT 19:37 MDT
Luna 09:01 MDT (10/25) 19:32 MDT (10/25)
Estensione della luce visibile 11h 41m
Lunghezza del giorno
10h 46m
Tomorrow will be 2m 22s shorter.
Luna crescente, 5% of the Moon is Illuminated
Oggi
Luna crescente
Ott 30
Primo quarto
Nov 6
Luna piena
Nov 14
Ultimo quarto
Nov 22
Nuovo

Gli estremi di oggi

State Highs State Lows

Community

WunderPhotos

Upload Photos

1,765,071 foto caricate!

Nearby

Qualità dell'aria

  Qualità dell'aria Indice AQ Inquinante
Ieri Buono
PM10
Ieri Buono
OZONE
Attuale Buono
PM2.5
Sabato Buono
OZONE
Sabato Buono
PM2.5
Domenica Buono
OZONE
Domenica Buono
PM2.5
Lunedì Buono
OZONE
Lunedì Buono
PM2.5

Profondità neve

Stazione Profondità Altitudine
Echo Lake 0 in 10600 ft
Lake Eldora 0 in 9700 ft
Jackwhacker Gulch 0 in 10960 ft
Berthoud Summit 0 in 11300 ft
Grizzly Peak 0 in 11100 ft

Attività sismica

Città  Distanza Mag. Data & Ora
Non sono state riportate attività sismiche nelle vicinanze.
Minimo Magnitudo Mostrato è 2.5.

Temperature delle acque costiere

Località Temperatura
Nessun dato dalle stazioni

Stazioni meteo nelle vicinanze